sensor_id;sensor_type;location;lat;lon;timestamp;temperature;humidity
31074;DHT22;17730;53.552;9.940;2022-12-18T00:01:28;-3.30;1.00
31074;DHT22;17730;53.552;9.940;2022-12-18T00:03:55;-3.30;1.00
31074;DHT22;17730;53.552;9.940;2022-12-18T00:06:21;-3.30;1.00
31074;DHT22;17730;53.552;9.940;2022-12-18T00:08:47;-3.30;1.00
31074;DHT22;17730;53.552;9.940;2022-12-18T00:11:15;-3.30;1.00
31074;DHT22;17730;53.552;9.940;2022-12-18T00:13:41;-3.30;1.00
31074;DHT22;17730;53.552;9.940;2022-12-18T00:16:10;-3.30;1.00
31074;DHT22;17730;53.552;9.940;2022-12-18T00:18:36;-3.30;1.00
31074;DHT22;17730;53.552;9.940;2022-12-18T00:21:04;-3.30;1.00
31074;DHT22;17730;53.552;9.940;2022-12-18T00:23:30;-3.40;1.30
31074;DHT22;17730;53.552;9.940;2022-12-18T00:26:00;-3.40;3.20
31074;DHT22;17730;53.552;9.940;2022-12-18T00:28:26;-3.40;4.60
31074;DHT22;17730;53.552;9.940;2022-12-18T00:31:03;-3.40;4.30
31074;DHT22;17730;53.552;9.940;2022-12-18T00:33:29;-3.40;4.70
31074;DHT22;17730;53.552;9.940;2022-12-18T00:35:54;-3.40;5.30
31074;DHT22;17730;53.552;9.940;2022-12-18T00:38:25;-3.40;5.70
31074;DHT22;17730;53.552;9.940;2022-12-18T00:40:50;-3.50;6.60
31074;DHT22;17730;53.552;9.940;2022-12-18T00:43:16;-3.50;6.30
31074;DHT22;17730;53.552;9.940;2022-12-18T00:45:41;-3.40;6.80
31074;DHT22;17730;53.552;9.940;2022-12-18T00:48:07;-3.50;5.80
31074;DHT22;17730;53.552;9.940;2022-12-18T00:50:33;-3.50;6.30
31074;DHT22;17730;53.552;9.940;2022-12-18T00:52:58;-3.50;7.10
31074;DHT22;17730;53.552;9.940;2022-12-18T00:55:24;-3.50;7.50
31074;DHT22;17730;53.552;9.940;2022-12-18T00:57:51;-3.50;7.60
31074;DHT22;17730;53.552;9.940;2022-12-18T01:00:17;-3.50;7.90
31074;DHT22;17730;53.552;9.940;2022-12-18T01:02:43;-3.50;6.70
31074;DHT22;17730;53.552;9.940;2022-12-18T01:05:11;-3.60;5.60
31074;DHT22;17730;53.552;9.940;2022-12-18T01:07:37;-3.50;6.30
31074;DHT22;17730;53.552;9.940;2022-12-18T01:10:04;-3.50;5.60
31074;DHT22;17730;53.552;9.940;2022-12-18T01:12:30;-3.60;6.30
31074;DHT22;17730;53.552;9.940;2022-12-18T01:14:56;-3.60;7.10
31074;DHT22;17730;53.552;9.940;2022-12-18T01:17:22;-3.60;8.50
31074;DHT22;17730;53.552;9.940;2022-12-18T01:19:48;-3.60;9.40
31074;DHT22;17730;53.552;9.940;2022-12-18T01:22:13;-3.60;8.80
31074;DHT22;17730;53.552;9.940;2022-12-18T01:24:39;-3.60;9.00
31074;DHT22;17730;53.552;9.940;2022-12-18T01:27:04;-3.60;8.90
31074;DHT22;17730;53.552;9.940;2022-12-18T01:29:30;-3.60;8.40
31074;DHT22;17730;53.552;9.940;2022-12-18T01:31:56;-3.60;8.40
31074;DHT22;17730;53.552;9.940;2022-12-18T01:34:23;-3.60;7.80
31074;DHT22;17730;53.552;9.940;2022-12-18T01:36:49;-3.60;5.80
31074;DHT22;17730;53.552;9.940;2022-12-18T01:39:18;-3.60;4.10
31074;DHT22;17730;53.552;9.940;2022-12-18T01:41:44;-3.50;3.80
31074;DHT22;17730;53.552;9.940;2022-12-18T01:50:36;-3.60;1.00
31074;DHT22;17730;53.552;9.940;2022-12-18T01:53:11;-3.60;1.00
31074;DHT22;17730;53.552;9.940;2022-12-18T01:55:48;-3.60;1.00
31074;DHT22;17730;53.552;9.940;2022-12-18T01:58:16;-3.60;1.00
31074;DHT22;17730;53.552;9.940;2022-12-18T02:00:42;-3.60;1.00
31074;DHT22;17730;53.552;9.940;2022-12-18T02:03:08;-3.60;1.00
31074;DHT22;17730;53.552;9.940;2022-12-18T02:18:50;-3.70;1.00
31074;DHT22;17730;53.552;9.940;2022-12-18T02:26:56;-3.60;1.00
31074;DHT22;17730;53.552;9.940;2022-12-18T02:31:58;-3.70;1.00
31074;DHT22;17730;53.552;9.940;2022-12-18T02:34:30;-3.70;1.00
31074;DHT22;17730;53.552;9.940;2022-12-18T02:36:57;-3.80;1.00
31074;DHT22;17730;53.552;9.940;2022-12-18T02:39:25;-3.80;1.00
31074;DHT22;17730;53.552;9.940;2022-12-18T02:41:52;-3.80;1.00
31074;DHT22;17730;53.552;9.940;2022-12-18T02:44:17;-3.70;1.00
31074;DHT22;17730;53.552;9.940;2022-12-18T02:46:49;-3.70;1.00
31074;DHT22;17730;53.552;9.940;2022-12-18T02:49:58;-3.80;1.00
31074;DHT22;17730;53.552;9.940;2022-12-18T02:58:05;-3.90;1.00
31074;DHT22;17730;53.552;9.940;2022-12-18T03:00:41;-3.90;1.00
31074;DHT22;17730;53.552;9.940;2022-12-18T03:09:38;-3.80;1.00
31074;DHT22;17730;53.552;9.940;2022-12-18T03:12:24;-3.90;1.00
31074;DHT22;17730;53.552;9.940;2022-12-18T03:15:08;-3.90;1.00
31074;DHT22;17730;53.552;9.940;2022-12-18T03:17:35;-3.90;1.00
31074;DHT22;17730;53.552;9.940;2022-12-18T03:20:12;-3.90;1.00
31074;DHT22;17730;53.552;9.940;2022-12-18T03:22:42;-4.00;1.00
31074;DHT22;17730;53.552;9.940;2022-12-18T03:25:11;-4.00;1.00
31074;DHT22;17730;53.552;9.940;2022-12-18T03:27:42;-4.00;1.00
31074;DHT22;17730;53.552;9.940;2022-12-18T03:30:10;-4.00;1.00
31074;DHT22;17730;53.552;9.940;2022-12-18T03:33:07;-4.10;1.00
31074;DHT22;17730;53.552;9.940;2022-12-18T03:35:37;-4.10;1.00
31074;DHT22;17730;53.552;9.940;2022-12-18T03:38:04;-4.10;1.00
31074;DHT22;17730;53.552;9.940;2022-12-18T03:40:39;-4.10;1.00
31074;DHT22;17730;53.552;9.940;2022-12-18T03:43:26;-4.00;1.00
31074;DHT22;17730;53.552;9.940;2022-12-18T03:46:03;-4.00;1.00
31074;DHT22;17730;53.552;9.940;2022-12-18T03:48:32;-4.10;1.00
31074;DHT22;17730;53.552;9.940;2022-12-18T03:51:10;-4.10;1.00
31074;DHT22;17730;53.552;9.940;2022-12-18T03:53:57;-4.00;1.00
31074;DHT22;17730;53.552;9.940;2022-12-18T03:56:26;-3.90;1.00
31074;DHT22;17730;53.552;9.940;2022-12-18T03:58:55;-4.00;1.00
31074;DHT22;17730;53.552;9.940;2022-12-18T04:01:28;-4.00;1.00
31074;DHT22;17730;53.552;9.940;2022-12-18T04:03:58;-4.00;1.00
31074;DHT22;17730;53.552;9.940;2022-12-18T04:06:25;-4.00;1.00
31074;DHT22;17730;53.552;9.940;2022-12-18T04:08:51;-3.90;1.00
31074;DHT22;17730;53.552;9.940;2022-12-18T04:11:17;-3.90;1.00
31074;DHT22;17730;53.552;9.940;2022-12-18T04:13:43;-3.90;1.00
31074;DHT22;17730;53.552;9.940;2022-12-18T04:16:09;-3.90;1.00
31074;DHT22;17730;53.552;9.940;2022-12-18T04:18:35;-4.00;1.00
31074;DHT22;17730;53.552;9.940;2022-12-18T04:21:01;-4.00;1.00
31074;DHT22;17730;53.552;9.940;2022-12-18T04:23:27;-4.10;1.00
31074;DHT22;17730;53.552;9.940;2022-12-18T04:25:53;-4.00;1.00
31074;DHT22;17730;53.552;9.940;2022-12-18T04:28:19;-4.00;1.00
31074;DHT22;17730;53.552;9.940;2022-12-18T04:30:45;-3.90;1.00
31074;DHT22;17730;53.552;9.940;2022-12-18T04:33:12;-4.00;1.00
31074;DHT22;17730;53.552;9.940;2022-12-18T04:35:39;-4.00;1.00
31074;DHT22;17730;53.552;9.940;2022-12-18T04:38:06;-4.00;1.00
31074;DHT22;17730;53.552;9.940;2022-12-18T04:40:36;-4.00;1.00
31074;DHT22;17730;53.552;9.940;2022-12-18T04:43:02;-4.00;1.00
31074;DHT22;17730;53.552;9.940;2022-12-18T04:45:28;-4.00;1.00
31074;DHT22;17730;53.552;9.940;2022-12-18T04:47:53;-4.00;1.00
31074;DHT22;17730;53.552;9.940;2022-12-18T04:50:19;-4.00;1.00
31074;DHT22;17730;53.552;9.940;2022-12-18T04:52:44;-4.10;1.00
31074;DHT22;17730;53.552;9.940;2022-12-18T04:55:10;-4.10;1.00
31074;DHT22;17730;53.552;9.940;2022-12-18T04:57:35;-4.10;1.00
31074;DHT22;17730;53.552;9.940;2022-12-18T05:00:02;-4.20;1.00
31074;DHT22;17730;53.552;9.940;2022-12-18T05:02:28;-4.20;1.00
31074;DHT22;17730;53.552;9.940;2022-12-18T05:04:53;-4.20;1.00
31074;DHT22;17730;53.552;9.940;2022-12-18T05:07:19;-4.20;1.00
31074;DHT22;17730;53.552;9.940;2022-12-18T05:09:45;-4.20;1.00
31074;DHT22;17730;53.552;9.940;2022-12-18T05:12:10;-4.30;1.00
31074;DHT22;17730;53.552;9.940;2022-12-18T05:14:36;-4.30;1.00
31074;DHT22;17730;53.552;9.940;2022-12-18T05:17:02;-4.30;1.00
31074;DHT22;17730;53.552;9.940;2022-12-18T05:19:27;-4.30;1.00
31074;DHT22;17730;53.552;9.940;2022-12-18T05:21:53;-4.30;1.00
31074;DHT22;17730;53.552;9.940;2022-12-18T05:24:19;-4.40;1.00
31074;DHT22;17730;53.552;9.940;2022-12-18T05:26:44;-4.40;1.00
31074;DHT22;17730;53.552;9.940;2022-12-18T05:29:10;-4.40;1.00
31074;DHT22;17730;53.552;9.940;2022-12-18T05:31:38;-4.50;1.00
31074;DHT22;17730;53.552;9.940;2022-12-18T05:34:04;-4.50;1.00
31074;DHT22;17730;53.552;9.940;2022-12-18T05:36:29;-4.50;1.00
31074;DHT22;17730;53.552;9.940;2022-12-18T05:38:55;-4.50;1.00
31074;DHT22;17730;53.552;9.940;2022-12-18T05:41:21;-4.50;1.00
31074;DHT22;17730;53.552;9.940;2022-12-18T05:43:46;-4.50;1.00
31074;DHT22;17730;53.552;9.940;2022-12-18T05:46:14;-4.60;1.00
31074;DHT22;17730;53.552;9.940;2022-12-18T05:48:41;-4.60;1.00
31074;DHT22;17730;53.552;9.940;2022-12-18T05:51:09;-4.60;1.00
31074;DHT22;17730;53.552;9.940;2022-12-18T05:53:36;-4.60;1.00
31074;DHT22;17730;53.552;9.940;2022-12-18T05:56:04;-4.60;1.00
31074;DHT22;17730;53.552;9.940;2022-12-18T05:58:31;-4.60;1.00
31074;DHT22;17730;53.552;9.940;2022-12-18T06:00:57;-4.70;1.00
31074;DHT22;17730;53.552;9.940;2022-12-18T06:03:23;-4.70;1.00
31074;DHT22;17730;53.552;9.940;2022-12-18T06:05:49;-4.60;1.00
31074;DHT22;17730;53.552;9.940;2022-12-18T06:08:15;-4.70;1.00
31074;DHT22;17730;53.552;9.940;2022-12-18T06:10:41;-4.70;1.00
31074;DHT22;17730;53.552;9.940;2022-12-18T06:13:07;-4.60;1.00
31074;DHT22;17730;53.552;9.940;2022-12-18T06:15:35;-4.60;1.00
31074;DHT22;17730;53.552;9.940;2022-12-18T06:18:01;-4.60;1.00
31074;DHT22;17730;53.552;9.940;2022-12-18T06:20:27;-4.70;1.00
31074;DHT22;17730;53.552;9.940;2022-12-18T06:22:52;-4.70;1.00
31074;DHT22;17730;53.552;9.940;2022-12-18T06:25:18;-4.80;1.00
31074;DHT22;17730;53.552;9.940;2022-12-18T06:27:44;-4.80;1.00
31074;DHT22;17730;53.552;9.940;2022-12-18T06:30:10;-4.80;1.00
31074;DHT22;17730;53.552;9.940;2022-12-18T06:32:35;-4.80;1.00
31074;DHT22;17730;53.552;9.940;2022-12-18T06:35:01;-4.80;1.00
31074;DHT22;17730;53.552;9.940;2022-12-18T06:37:27;-4.80;1.00
31074;DHT22;17730;53.552;9.940;2022-12-18T06:39:53;-4.80;1.00
31074;DHT22;17730;53.552;9.940;2022-12-18T06:42:22;-4.90;1.00
31074;DHT22;17730;53.552;9.940;2022-12-18T06:44:48;-4.90;1.00
31074;DHT22;17730;53.552;9.940;2022-12-18T06:47:14;-4.80;1.00
31074;DHT22;17730;53.552;9.940;2022-12-18T06:49:39;-4.80;1.00
31074;DHT22;17730;53.552;9.940;2022-12-18T06:52:05;-4.80;1.00
31074;DHT22;17730;53.552;9.940;2022-12-18T06:54:31;-4.80;1.00
31074;DHT22;17730;53.552;9.940;2022-12-18T06:56:56;-4.90;1.00
31074;DHT22;17730;53.552;9.940;2022-12-18T06:59:22;-4.90;1.00
31074;DHT22;17730;53.552;9.940;2022-12-18T07:01:47;-4.90;1.00
31074;DHT22;17730;53.552;9.940;2022-12-18T07:04:13;-4.90;1.00
31074;DHT22;17730;53.552;9.940;2022-12-18T07:06:39;-4.90;1.00
31074;DHT22;17730;53.552;9.940;2022-12-18T07:09:04;-5.00;1.00
31074;DHT22;17730;53.552;9.940;2022-12-18T07:11:32;-5.00;1.00
31074;DHT22;17730;53.552;9.940;2022-12-18T07:13:58;-5.00;1.00
31074;DHT22;17730;53.552;9.940;2022-12-18T07:16:23;-5.00;1.00
31074;DHT22;17730;53.552;9.940;2022-12-18T07:18:49;-5.00;1.00
31074;DHT22;17730;53.552;9.940;2022-12-18T07:21:18;-5.00;1.70
31074;DHT22;17730;53.552;9.940;2022-12-18T07:23:44;-5.00;1.40
31074;DHT22;17730;53.552;9.940;2022-12-18T07:26:14;-5.00;1.60
31074;DHT22;17730;53.552;9.940;2022-12-18T07:28:41;-5.00;1.60
31074;DHT22;17730;53.552;9.940;2022-12-18T07:31:11;-5.00;1.50
31074;DHT22;17730;53.552;9.940;2022-12-18T07:33:37;-5.00;2.00
31074;DHT22;17730;53.552;9.940;2022-12-18T07:36:04;-4.90;7.10
31074;DHT22;17730;53.552;9.940;2022-12-18T07:38:31;-4.90;4.50
31074;DHT22;17730;53.552;9.940;2022-12-18T07:41:05;-4.90;3.60
31074;DHT22;17730;53.552;9.940;2022-12-18T07:43:31;-4.90;4.60
31074;DHT22;17730;53.552;9.940;2022-12-18T07:45:57;-4.90;5.90
31074;DHT22;17730;53.552;9.940;2022-12-18T07:48:22;-4.80;8.30
31074;DHT22;17730;53.552;9.940;2022-12-18T07:50:48;-4.70;8.60
31074;DHT22;17730;53.552;9.940;2022-12-18T07:53:14;-4.70;9.50
31074;DHT22;17730;53.552;9.940;2022-12-18T07:55:43;-4.60;9.60
31074;DHT22;17730;53.552;9.940;2022-12-18T07:58:08;-4.60;9.50
31074;DHT22;17730;53.552;9.940;2022-12-18T08:00:34;-4.50;9.30
31074;DHT22;17730;53.552;9.940;2022-12-18T08:03:00;-4.50;9.10
31074;DHT22;17730;53.552;9.940;2022-12-18T08:05:26;-4.40;7.90
31074;DHT22;17730;53.552;9.940;2022-12-18T08:07:53;-4.30;4.90
31074;DHT22;17730;53.552;9.940;2022-12-18T08:10:19;-4.20;1.00
31074;DHT22;17730;53.552;9.940;2022-12-18T08:12:45;-4.10;1.00
31074;DHT22;17730;53.552;9.940;2022-12-18T08:15:10;-4.00;1.00
31074;DHT22;17730;53.552;9.940;2022-12-18T08:17:36;-3.70;1.40
31074;DHT22;17730;53.552;9.940;2022-12-18T08:20:02;-3.40;1.00
31074;DHT22;17730;53.552;9.940;2022-12-18T08:22:27;-3.20;1.00
31074;DHT22;17730;53.552;9.940;2022-12-18T08:24:53;-3.20;1.00
31074;DHT22;17730;53.552;9.940;2022-12-18T08:27:19;-3.20;1.00
31074;DHT22;17730;53.552;9.940;2022-12-18T08:29:44;-3.30;99.90
31074;DHT22;17730;53.552;9.940;2022-12-18T08:32:10;-3.30;99.90
31074;DHT22;17730;53.552;9.940;2022-12-18T08:34:38;-3.30;99.90
31074;DHT22;17730;53.552;9.940;2022-12-18T08:37:03;-3.20;99.90
31074;DHT22;17730;53.552;9.940;2022-12-18T08:39:29;-2.80;1.00
31074;DHT22;17730;53.552;9.940;2022-12-18T08:41:54;-2.30;1.00
31074;DHT22;17730;53.552;9.940;2022-12-18T08:44:39;-1.80;1.00
31074;DHT22;17730;53.552;9.940;2022-12-18T08:47:05;-1.30;99.90
31074;DHT22;17730;53.552;9.940;2022-12-18T08:49:32;-1.30;99.90
31074;DHT22;17730;53.552;9.940;2022-12-18T08:51:58;-1.40;99.90
31074;DHT22;17730;53.552;9.940;2022-12-18T08:54:24;-1.60;99.90
31074;DHT22;17730;53.552;9.940;2022-12-18T08:56:50;-1.70;99.90
31074;DHT22;17730;53.552;9.940;2022-12-18T08:59:19;-1.90;99.90
31074;DHT22;17730;53.552;9.940;2022-12-18T09:01:46;-2.00;99.90
31074;DHT22;17730;53.552;9.940;2022-12-18T09:04:12;-2.00;99.90
31074;DHT22;17730;53.552;9.940;2022-12-18T09:06:39;-2.00;99.90
31074;DHT22;17730;53.552;9.940;2022-12-18T09:09:05;-2.00;99.90
31074;DHT22;17730;53.552;9.940;2022-12-18T09:11:32;-2.00;99.90
31074;DHT22;17730;53.552;9.940;2022-12-18T09:13:59;-2.00;99.90
31074;DHT22;17730;53.552;9.940;2022-12-18T09:16:27;-1.90;99.90
31074;DHT22;17730;53.552;9.940;2022-12-18T09:18:55;-1.90;99.90
31074;DHT22;17730;53.552;9.940;2022-12-18T09:21:25;-1.80;99.90
31074;DHT22;17730;53.552;9.940;2022-12-18T09:23:52;-1.70;99.90
31074;DHT22;17730;53.552;9.940;2022-12-18T09:26:18;-1.60;99.90
31074;DHT22;17730;53.552;9.940;2022-12-18T09:28:44;-1.40;99.90
31074;DHT22;17730;53.552;9.940;2022-12-18T09:31:12;-1.40;99.90
31074;DHT22;17730;53.552;9.940;2022-12-18T09:33:38;-1.20;99.90
31074;DHT22;17730;53.552;9.940;2022-12-18T09:36:06;-1.10;99.90
31074;DHT22;17730;53.552;9.940;2022-12-18T09:38:33;-1.00;99.90
31074;DHT22;17730;53.552;9.940;2022-12-18T09:44:16;-1.10;76.20
31074;DHT22;17730;53.552;9.940;2022-12-18T09:46:53;-1.10;99.90
31074;DHT22;17730;53.552;9.940;2022-12-18T09:49:23;-1.00;99.90
31074;DHT22;17730;53.552;9.940;2022-12-18T09:51:57;-0.80;85.40
31074;DHT22;17730;53.552;9.940;2022-12-18T09:54:31;-0.70;71.40
31074;DHT22;17730;53.552;9.940;2022-12-18T09:56:58;-0.60;24.90
31074;DHT22;17730;53.552;9.940;2022-12-18T09:59:25;-0.60;1.00
31074;DHT22;17730;53.552;9.940;2022-12-18T10:01:52;-0.50;1.00
31074;DHT22;17730;53.552;9.940;2022-12-18T10:04:17;-0.50;1.00
31074;DHT22;17730;53.552;9.940;2022-12-18T10:11:59;-0.30;1.00
31074;DHT22;17730;53.552;9.940;2022-12-18T10:28:12;0.00;1.00
31074;DHT22;17730;53.552;9.940;2022-12-18T10:30:39;0.00;99.90
31074;DHT22;17730;53.552;9.940;2022-12-18T10:33:05;0.00;99.90
31074;DHT22;17730;53.552;9.940;2022-12-18T10:35:31;0.10;99.90
31074;DHT22;17730;53.552;9.940;2022-12-18T10:38:00;0.10;99.90
31074;DHT22;17730;53.552;9.940;2022-12-18T10:40:26;0.20;99.90
31074;DHT22;17730;53.552;9.940;2022-12-18T10:43:12;0.40;99.90
31074;DHT22;17730;53.552;9.940;2022-12-18T10:45:40;0.30;99.90
31074;DHT22;17730;53.552;9.940;2022-12-18T10:48:18;0.30;99.90
31074;DHT22;17730;53.552;9.940;2022-12-18T10:50:48;0.40;99.90
31074;DHT22;17730;53.552;9.940;2022-12-18T10:53:20;0.40;99.90
31074;DHT22;17730;53.552;9.940;2022-12-18T10:55:47;0.50;99.90
31074;DHT22;17730;53.552;9.940;2022-12-18T11:00:44;0.70;1.00
31074;DHT22;17730;53.552;9.940;2022-12-18T11:03:32;1.10;9.30
31074;DHT22;17730;53.552;9.940;2022-12-18T11:06:06;1.80;1.00
31074;DHT22;17730;53.552;9.940;2022-12-18T11:08:32;2.30;99.90
31074;DHT22;17730;53.552;9.940;2022-12-18T11:10:58;2.90;41.20
31074;DHT22;17730;53.552;9.940;2022-12-18T11:13:26;2.90;99.90
31074;DHT22;17730;53.552;9.940;2022-12-18T11:15:52;2.90;99.90
31074;DHT22;17730;53.552;9.940;2022-12-18T11:18:33;2.80;15.40
31074;DHT22;17730;53.552;9.940;2022-12-18T11:21:08;2.50;99.90
31074;DHT22;17730;53.552;9.940;2022-12-18T11:23:35;2.30;99.90
31074;DHT22;17730;53.552;9.940;2022-12-18T11:26:03;2.00;23.20
31074;DHT22;17730;53.552;9.940;2022-12-18T11:28:34;1.70;99.90
31074;DHT22;17730;53.552;9.940;2022-12-18T11:31:20;1.60;1.00
31074;DHT22;17730;53.552;9.940;2022-12-18T11:36:22;1.20;99.90
31074;DHT22;17730;53.552;9.940;2022-12-18T11:38:49;1.00;1.00
31074;DHT22;17730;53.552;9.940;2022-12-18T11:41:39;0.80;99.90
31074;DHT22;17730;53.552;9.940;2022-12-18T11:44:42;0.70;99.90
31074;DHT22;17730;53.552;9.940;2022-12-18T11:49:44;0.70;99.90
31074;DHT22;17730;53.552;9.940;2022-12-18T11:52:23;0.70;99.90
31074;DHT22;17730;53.552;9.940;2022-12-18T11:54:53;0.80;99.90
31074;DHT22;17730;53.552;9.940;2022-12-18T11:57:52;0.90;99.90
31074;DHT22;17730;53.552;9.940;2022-12-18T12:00:22;0.90;99.90
31074;DHT22;17730;53.552;9.940;2022-12-18T12:08:16;1.10;15.60
31074;DHT22;17730;53.552;9.940;2022-12-18T12:11:04;1.00;19.20
31074;DHT22;17730;53.552;9.940;2022-12-18T12:14:01;0.90;83.20
31074;DHT22;17730;53.552;9.940;2022-12-18T12:16:59;0.60;99.90
31074;DHT22;17730;53.552;9.940;2022-12-18T12:24:56;0.10;1.00
31074;DHT22;17730;53.552;9.940;2022-12-18T12:30:24;0.00;1.00
31074;DHT22;17730;53.552;9.940;2022-12-18T12:36:10;-0.10;12.30
31074;DHT22;17730;53.552;9.940;2022-12-18T12:38:42;-0.10;36.20
31074;DHT22;17730;53.552;9.940;2022-12-18T12:41:12;-0.10;60.80
31074;DHT22;17730;53.552;9.940;2022-12-18T12:44:02;-0.20;81.30
31074;DHT22;17730;53.552;9.940;2022-12-18T12:46:32;0.00;99.90
31074;DHT22;17730;53.552;9.940;2022-12-18T12:49:02;0.30;94.40
31074;DHT22;17730;53.552;9.940;2022-12-18T12:51:33;0.50;4.70
31074;DHT22;17730;53.552;9.940;2022-12-18T12:54:03;0.50;1.00
31074;DHT22;17730;53.552;9.940;2022-12-18T12:59:22;0.50;1.00
31074;DHT22;17730;53.552;9.940;2022-12-18T13:02:03;0.40;1.00
31074;DHT22;17730;53.552;9.940;2022-12-18T13:04:51;0.50;1.00
31074;DHT22;17730;53.552;9.940;2022-12-18T13:07:23;0.40;4.70
31074;DHT22;17730;53.552;9.940;2022-12-18T13:13:02;0.50;1.00
31074;DHT22;17730;53.552;9.940;2022-12-18T13:18:16;0.50;99.90
31074;DHT22;17730;53.552;9.940;2022-12-18T13:21:03;0.50;99.90
31074;DHT22;17730;53.552;9.940;2022-12-18T13:23:36;0.40;99.90
31074;DHT22;17730;53.552;9.940;2022-12-18T13:34:20;-0.20;99.90
31074;DHT22;17730;53.552;9.940;2022-12-18T13:36:46;-0.30;1.00
31074;DHT22;17730;53.552;9.940;2022-12-18T13:41:48;-0.50;1.50
31074;DHT22;17730;53.552;9.940;2022-12-18T13:44:34;-0.60;51.90
31074;DHT22;17730;53.552;9.940;2022-12-18T13:47:05;-0.70;68.60
31074;DHT22;17730;53.552;9.940;2022-12-18T13:49:43;-0.80;92.60
31074;DHT22;17730;53.552;9.940;2022-12-18T13:52:19;-0.90;99.90
31074;DHT22;17730;53.552;9.940;2022-12-18T13:54:52;-1.00;99.90
31074;DHT22;17730;53.552;9.940;2022-12-18T14:02:46;-1.20;99.90
31074;DHT22;17730;53.552;9.940;2022-12-18T14:07:55;-1.30;99.90
31074;DHT22;17730;53.552;9.940;2022-12-18T14:10:21;-1.40;99.90
31074;DHT22;17730;53.552;9.940;2022-12-18T14:12:49;-1.40;99.90
31074;DHT22;17730;53.552;9.940;2022-12-18T14:17:56;-1.40;99.90
31074;DHT22;17730;53.552;9.940;2022-12-18T14:20:24;-1.50;99.90
31074;DHT22;17730;53.552;9.940;2022-12-18T14:22:50;-1.50;99.90
31074;DHT22;17730;53.552;9.940;2022-12-18T14:25:19;-1.50;99.90
31074;DHT22;17730;53.552;9.940;2022-12-18T14:27:48;-1.60;99.90
31074;DHT22;17730;53.552;9.940;2022-12-18T14:35:26;-1.80;99.90
31074;DHT22;17730;53.552;9.940;2022-12-18T14:37:52;-1.80;99.90
31074;DHT22;17730;53.552;9.940;2022-12-18T14:40:18;-1.80;99.90
31074;DHT22;17730;53.552;9.940;2022-12-18T14:42:43;-1.90;99.90
31074;DHT22;17730;53.552;9.940;2022-12-18T14:45:34;-1.90;99.90
31074;DHT22;17730;53.552;9.940;2022-12-18T14:48:01;-1.90;99.90
31074;DHT22;17730;53.552;9.940;2022-12-18T14:50:31;-2.00;99.90
31074;DHT22;17730;53.552;9.940;2022-12-18T14:52:56;-2.00;99.90
31074;DHT22;17730;53.552;9.940;2022-12-18T14:55:22;-2.10;99.90
31074;DHT22;17730;53.552;9.940;2022-12-18T14:57:53;-2.10;99.90
31074;DHT22;17730;53.552;9.940;2022-12-18T15:00:22;-2.10;99.90
31074;DHT22;17730;53.552;9.940;2022-12-18T15:02:56;-2.20;99.90
31074;DHT22;17730;53.552;9.940;2022-12-18T15:05:28;-2.20;99.90
31074;DHT22;17730;53.552;9.940;2022-12-18T15:07:56;-2.30;99.90
31074;DHT22;17730;53.552;9.940;2022-12-18T15:10:26;-2.30;99.90
31074;DHT22;17730;53.552;9.940;2022-12-18T15:18:00;-2.40;99.90
31074;DHT22;17730;53.552;9.940;2022-12-18T15:20:26;-2.40;99.90
31074;DHT22;17730;53.552;9.940;2022-12-18T15:22:52;-2.50;99.90
31074;DHT22;17730;53.552;9.940;2022-12-18T15:25:36;-2.50;99.90
31074;DHT22;17730;53.552;9.940;2022-12-18T15:28:03;-2.50;99.90
31074;DHT22;17730;53.552;9.940;2022-12-18T15:30:29;-2.60;99.90
31074;DHT22;17730;53.552;9.940;2022-12-18T15:33:22;-2.60;99.90
31074;DHT22;17730;53.552;9.940;2022-12-18T15:35:56;-2.60;99.90
31074;DHT22;17730;53.552;9.940;2022-12-18T15:38:23;-2.60;99.90
31074;DHT22;17730;53.552;9.940;2022-12-18T15:40:49;-2.60;99.90
31074;DHT22;17730;53.552;9.940;2022-12-18T15:43:14;-2.60;99.90
31074;DHT22;17730;53.552;9.940;2022-12-18T15:45:58;-2.50;1.00
31074;DHT22;17730;53.552;9.940;2022-12-18T15:48:24;-2.50;99.90
31074;DHT22;17730;53.552;9.940;2022-12-18T15:50:51;-2.50;99.90
31074;DHT22;17730;53.552;9.940;2022-12-18T15:53:18;-2.50;1.00
31074;DHT22;17730;53.552;9.940;2022-12-18T15:55:43;-2.40;1.00
31074;DHT22;17730;53.552;9.940;2022-12-18T15:58:27;-2.40;1.00
31074;DHT22;17730;53.552;9.940;2022-12-18T16:00:54;-2.40;1.00
31074;DHT22;17730;53.552;9.940;2022-12-18T16:03:21;-2.30;1.00
31074;DHT22;17730;53.552;9.940;2022-12-18T16:05:47;-2.40;1.00
31074;DHT22;17730;53.552;9.940;2022-12-18T16:08:12;-2.40;1.00
31074;DHT22;17730;53.552;9.940;2022-12-18T16:10:38;-2.30;1.00
31074;DHT22;17730;53.552;9.940;2022-12-18T16:13:04;-2.30;1.00
31074;DHT22;17730;53.552;9.940;2022-12-18T16:15:29;-2.30;1.00
31074;DHT22;17730;53.552;9.940;2022-12-18T16:17:55;-2.30;1.00
31074;DHT22;17730;53.552;9.940;2022-12-18T16:20:21;-2.30;1.00
31074;DHT22;17730;53.552;9.940;2022-12-18T16:22:49;-2.30;1.00
31074;DHT22;17730;53.552;9.940;2022-12-18T16:25:21;-2.30;1.00
31074;DHT22;17730;53.552;9.940;2022-12-18T16:27:47;-2.30;1.00
31074;DHT22;17730;53.552;9.940;2022-12-18T16:30:17;-2.30;1.00
31074;DHT22;17730;53.552;9.940;2022-12-18T16:32:44;-2.30;1.00
31074;DHT22;17730;53.552;9.940;2022-12-18T16:35:14;-2.20;1.00
31074;DHT22;17730;53.552;9.940;2022-12-18T16:37:40;-2.30;1.00
31074;DHT22;17730;53.552;9.940;2022-12-18T16:40:08;-2.30;1.00
31074;DHT22;17730;53.552;9.940;2022-12-18T16:42:35;-2.20;1.00
31074;DHT22;17730;53.552;9.940;2022-12-18T16:45:02;-2.20;1.00
31074;DHT22;17730;53.552;9.940;2022-12-18T16:47:28;-2.20;1.00
31074;DHT22;17730;53.552;9.940;2022-12-18T16:49:54;-2.30;1.00
31074;DHT22;17730;53.552;9.940;2022-12-18T16:52:21;-2.30;1.00
31074;DHT22;17730;53.552;9.940;2022-12-18T16:54:47;-2.30;1.00
31074;DHT22;17730;53.552;9.940;2022-12-18T16:57:17;-2.30;1.00
31074;DHT22;17730;53.552;9.940;2022-12-18T16:59:44;-2.30;1.00
31074;DHT22;17730;53.552;9.940;2022-12-18T17:02:21;-2.30;1.00
31074;DHT22;17730;53.552;9.940;2022-12-18T17:04:46;-2.30;1.00
31074;DHT22;17730;53.552;9.940;2022-12-18T17:07:13;-2.30;1.00
31074;DHT22;17730;53.552;9.940;2022-12-18T17:09:39;-2.30;1.00
31074;DHT22;17730;53.552;9.940;2022-12-18T17:12:05;-2.40;1.00
31074;DHT22;17730;53.552;9.940;2022-12-18T17:14:32;-2.30;1.00
31074;DHT22;17730;53.552;9.940;2022-12-18T17:16:58;-2.30;1.00
31074;DHT22;17730;53.552;9.940;2022-12-18T17:19:27;-2.30;1.00
31074;DHT22;17730;53.552;9.940;2022-12-18T17:21:52;-2.30;1.00
31074;DHT22;17730;53.552;9.940;2022-12-18T17:24:19;-2.30;1.00
31074;DHT22;17730;53.552;9.940;2022-12-18T17:26:44;-2.30;1.00
31074;DHT22;17730;53.552;9.940;2022-12-18T17:29:13;-2.30;1.00
31074;DHT22;17730;53.552;9.940;2022-12-18T17:31:39;-2.30;1.00
31074;DHT22;17730;53.552;9.940;2022-12-18T17:34:05;-2.30;1.00
31074;DHT22;17730;53.552;9.940;2022-12-18T17:36:30;-2.30;1.00
31074;DHT22;17730;53.552;9.940;2022-12-18T17:39:00;-2.40;1.00
31074;DHT22;17730;53.552;9.940;2022-12-18T17:41:28;-2.30;1.00
31074;DHT22;17730;53.552;9.940;2022-12-18T17:43:59;-2.30;1.00
31074;DHT22;17730;53.552;9.940;2022-12-18T17:46:25;-2.30;1.00
31074;DHT22;17730;53.552;9.940;2022-12-18T17:48:54;-2.30;1.00
31074;DHT22;17730;53.552;9.940;2022-12-18T17:51:20;-2.30;1.00
31074;DHT22;17730;53.552;9.940;2022-12-18T17:53:46;-2.30;1.00
31074;DHT22;17730;53.552;9.940;2022-12-18T17:56:13;-2.30;1.00
31074;DHT22;17730;53.552;9.940;2022-12-18T17:58:39;-2.30;1.00
31074;DHT22;17730;53.552;9.940;2022-12-18T18:01:06;-2.20;1.00